sensor_id;sensor_type;location;lat;lon;timestamp;pressure;altitude;pressure_sealevel;temperature;humidity
61345;BME280;47216;42.656;23.232;2023-04-28T00:02:00;94114.91;;;5.87;58.43
61345;BME280;47216;42.656;23.232;2023-04-28T00:04:27;94106.38;;;5.80;58.13
61345;BME280;47216;42.656;23.232;2023-04-28T00:06:54;94107.03;;;5.75;59.04
61345;BME280;47216;42.656;23.232;2023-04-28T00:09:21;94102.63;;;5.82;59.46
61345;BME280;47216;42.656;23.232;2023-04-28T00:11:49;94099.78;;;5.84;58.87
61345;BME280;47216;42.656;23.232;2023-04-28T00:14:16;94100.22;;;5.81;58.76
61345;BME280;47216;42.656;23.232;2023-04-28T00:16:43;94108.63;;;5.76;58.94
61345;BME280;47216;42.656;23.232;2023-04-28T00:19:10;94101.44;;;5.78;58.26
61345;BME280;47216;42.656;23.232;2023-04-28T00:21:37;94108.13;;;5.61;58.62
61345;BME280;47216;42.656;23.232;2023-04-28T00:24:04;94102.38;;;5.59;58.60
61345;BME280;47216;42.656;23.232;2023-04-28T00:26:32;94106.41;;;5.55;58.64
61345;BME280;47216;42.656;23.232;2023-04-28T00:29:00;94100.53;;;5.41;58.91
61345;BME280;47216;42.656;23.232;2023-04-28T00:31:27;94104.06;;;5.46;59.33
61345;BME280;47216;42.656;23.232;2023-04-28T00:33:53;94106.06;;;5.44;59.15
61345;BME280;47216;42.656;23.232;2023-04-28T00:36:20;94114.41;;;5.46;58.98
61345;BME280;47216;42.656;23.232;2023-04-28T00:38:47;94115.97;;;5.47;59.27
61345;BME280;47216;42.656;23.232;2023-04-28T00:41:15;94117.13;;;5.52;59.27
61345;BME280;47216;42.656;23.232;2023-04-28T00:43:45;94119.09;;;5.56;58.86
61345;BME280;47216;42.656;23.232;2023-04-28T00:46:20;94118.75;;;5.53;59.32
61345;BME280;47216;42.656;23.232;2023-04-28T00:48:48;94121.94;;;5.48;59.15
61345;BME280;47216;42.656;23.232;2023-04-28T00:51:15;94122.00;;;5.41;59.49
61345;BME280;47216;42.656;23.232;2023-04-28T00:53:42;94124.28;;;5.24;59.27
61345;BME280;47216;42.656;23.232;2023-04-28T00:56:10;94127.28;;;5.15;59.03
61345;BME280;47216;42.656;23.232;2023-04-28T00:58:37;94124.09;;;5.19;60.40
61345;BME280;47216;42.656;23.232;2023-04-28T01:01:05;94129.06;;;5.21;60.16
61345;BME280;47216;42.656;23.232;2023-04-28T01:03:35;94131.31;;;5.11;60.48
61345;BME280;47216;42.656;23.232;2023-04-28T01:06:04;94128.50;;;5.12;60.22
61345;BME280;47216;42.656;23.232;2023-04-28T01:08:31;94130.50;;;5.10;60.99
61345;BME280;47216;42.656;23.232;2023-04-28T01:10:58;94137.63;;;5.15;59.84
61345;BME280;47216;42.656;23.232;2023-04-28T01:13:26;94132.72;;;5.07;59.54
61345;BME280;47216;42.656;23.232;2023-04-28T01:15:54;94134.69;;;5.11;59.73
61345;BME280;47216;42.656;23.232;2023-04-28T01:18:21;94137.13;;;4.99;60.46
61345;BME280;47216;42.656;23.232;2023-04-28T01:20:49;94133.53;;;5.00;60.04
61345;BME280;47216;42.656;23.232;2023-04-28T01:23:16;94144.47;;;4.96;60.25
61345;BME280;47216;42.656;23.232;2023-04-28T01:25:45;94141.75;;;4.84;60.87
61345;BME280;47216;42.656;23.232;2023-04-28T01:28:11;94132.03;;;4.73;61.58
61345;BME280;47216;42.656;23.232;2023-04-28T01:30:38;94143.72;;;4.82;61.65
61345;BME280;47216;42.656;23.232;2023-04-28T01:33:05;94140.38;;;4.75;62.07
61345;BME280;47216;42.656;23.232;2023-04-28T01:35:32;94134.19;;;4.76;62.03
61345;BME280;47216;42.656;23.232;2023-04-28T01:37:59;94137.38;;;4.78;61.78
61345;BME280;47216;42.656;23.232;2023-04-28T01:40:26;94134.59;;;4.79;61.29
61345;BME280;47216;42.656;23.232;2023-04-28T01:42:54;94130.25;;;4.67;61.71
61345;BME280;47216;42.656;23.232;2023-04-28T01:45:21;94127.50;;;4.61;61.71
61345;BME280;47216;42.656;23.232;2023-04-28T01:47:48;94137.81;;;4.61;61.16
61345;BME280;47216;42.656;23.232;2023-04-28T01:50:15;94147.03;;;4.44;61.67
61345;BME280;47216;42.656;23.232;2023-04-28T01:52:42;94132.50;;;4.43;61.45
61345;BME280;47216;42.656;23.232;2023-04-28T01:55:08;94144.03;;;4.47;61.25
61345;BME280;47216;42.656;23.232;2023-04-28T01:57:36;94141.03;;;4.50;61.64
61345;BME280;47216;42.656;23.232;2023-04-28T02:00:05;94145.03;;;4.46;61.52
61345;BME280;47216;42.656;23.232;2023-04-28T02:02:32;94142.28;;;4.14;61.51
61345;BME280;47216;42.656;23.232;2023-04-28T02:04:59;94135.53;;;4.13;61.39
61345;BME280;47216;42.656;23.232;2023-04-28T02:07:26;94137.13;;;4.14;61.54
61345;BME280;47216;42.656;23.232;2023-04-28T02:09:52;94140.31;;;4.10;61.99
61345;BME280;47216;42.656;23.232;2023-04-28T02:12:19;94150.22;;;4.13;62.99
61345;BME280;47216;42.656;23.232;2023-04-28T02:14:47;94137.53;;;4.11;62.16
61345;BME280;47216;42.656;23.232;2023-04-28T02:17:15;94144.47;;;4.17;62.39
61345;BME280;47216;42.656;23.232;2023-04-28T02:19:42;94140.09;;;4.18;62.20
61345;BME280;47216;42.656;23.232;2023-04-28T02:22:09;94151.00;;;4.13;62.79
61345;BME280;47216;42.656;23.232;2023-04-28T02:24:36;94155.75;;;4.30;62.94
61345;BME280;47216;42.656;23.232;2023-04-28T02:27:03;94144.28;;;4.26;61.97
61345;BME280;47216;42.656;23.232;2023-04-28T02:29:30;94145.25;;;4.18;62.59
61345;BME280;47216;42.656;23.232;2023-04-28T02:31:56;94153.22;;;4.03;62.99
61345;BME280;47216;42.656;23.232;2023-04-28T02:34:25;94159.94;;;4.04;62.75
61345;BME280;47216;42.656;23.232;2023-04-28T02:36:52;94170.06;;;3.99;63.12
61345;BME280;47216;42.656;23.232;2023-04-28T02:39:18;94169.69;;;3.89;62.92
61345;BME280;47216;42.656;23.232;2023-04-28T02:41:49;94168.06;;;3.81;63.25
61345;BME280;47216;42.656;23.232;2023-04-28T02:44:16;94166.50;;;3.87;63.71
61345;BME280;47216;42.656;23.232;2023-04-28T02:46:43;94166.91;;;3.97;62.21
61345;BME280;47216;42.656;23.232;2023-04-28T02:49:10;94168.88;;;3.95;62.15
61345;BME280;47216;42.656;23.232;2023-04-28T02:51:38;94175.25;;;3.79;62.68
61345;BME280;47216;42.656;23.232;2023-04-28T02:54:06;94174.44;;;3.85;62.18
61345;BME280;47216;42.656;23.232;2023-04-28T02:56:33;94176.81;;;3.87;62.99
61345;BME280;47216;42.656;23.232;2023-04-28T02:59:01;94178.00;;;3.77;63.21
61345;BME280;47216;42.656;23.232;2023-04-28T03:01:28;94183.56;;;3.74;63.67
61345;BME280;47216;42.656;23.232;2023-04-28T03:03:55;94189.91;;;3.78;63.65
61345;BME280;47216;42.656;23.232;2023-04-28T03:06:21;94193.88;;;3.74;63.68
61345;BME280;47216;42.656;23.232;2023-04-28T03:08:50;94193.66;;;3.76;62.72
61345;BME280;47216;42.656;23.232;2023-04-28T03:11:16;94185.53;;;3.72;62.96
61345;BME280;47216;42.656;23.232;2023-04-28T03:13:44;94190.31;;;3.75;62.59
61345;BME280;47216;42.656;23.232;2023-04-28T03:16:11;94182.38;;;3.70;62.17
61345;BME280;47216;42.656;23.232;2023-04-28T03:18:38;94188.34;;;3.84;62.52
61345;BME280;47216;42.656;23.232;2023-04-28T03:21:05;94195.28;;;3.84;62.79
61345;BME280;47216;42.656;23.232;2023-04-28T03:23:31;94195.06;;;3.92;62.96
61345;BME280;47216;42.656;23.232;2023-04-28T03:26:00;94203.59;;;3.86;61.96
61345;BME280;47216;42.656;23.232;2023-04-28T03:28:27;94206.75;;;3.81;62.66
61345;BME280;47216;42.656;23.232;2023-04-28T03:30:54;94205.00;;;3.82;62.72
61345;BME280;47216;42.656;23.232;2023-04-28T03:33:21;94219.66;;;3.74;63.15
61345;BME280;47216;42.656;23.232;2023-04-28T03:35:49;94225.41;;;3.70;63.04
61345;BME280;47216;42.656;23.232;2023-04-28T03:38:15;94228.38;;;3.67;62.31
61345;BME280;47216;42.656;23.232;2023-04-28T03:40:42;94227.16;;;3.63;63.12
61345;BME280;47216;42.656;23.232;2023-04-28T03:43:11;94222.41;;;3.66;62.88
61345;BME280;47216;42.656;23.232;2023-04-28T03:45:39;94231.94;;;3.66;62.57
61345;BME280;47216;42.656;23.232;2023-04-28T03:48:06;94236.69;;;3.69;62.89
61345;BME280;47216;42.656;23.232;2023-04-28T03:50:33;94239.06;;;3.57;62.85
61345;BME280;47216;42.656;23.232;2023-04-28T03:53:00;94232.31;;;3.56;62.80
61345;BME280;47216;42.656;23.232;2023-04-28T03:55:27;94236.31;;;3.65;62.81
61345;BME280;47216;42.656;23.232;2023-04-28T03:57:54;94238.50;;;3.75;62.59
61345;BME280;47216;42.656;23.232;2023-04-28T04:00:22;94246.63;;;3.78;61.97
61345;BME280;47216;42.656;23.232;2023-04-28T04:02:49;94245.22;;;3.69;61.99
61345;BME280;47216;42.656;23.232;2023-04-28T04:05:15;94249.00;;;3.73;61.91
61345;BME280;47216;42.656;23.232;2023-04-28T04:07:42;94251.00;;;3.78;62.12
61345;BME280;47216;42.656;23.232;2023-04-28T04:10:09;94244.88;;;3.86;62.59
61345;BME280;47216;42.656;23.232;2023-04-28T04:12:36;94250.06;;;3.99;61.53
61345;BME280;47216;42.656;23.232;2023-04-28T04:15:04;94255.03;;;4.00;60.89
61345;BME280;47216;42.656;23.232;2023-04-28T04:17:33;94253.84;;;4.03;61.27
61345;BME280;47216;42.656;23.232;2023-04-28T04:20:00;94250.66;;;4.08;61.92
61345;BME280;47216;42.656;23.232;2023-04-28T04:22:27;94250.88;;;4.19;61.27
61345;BME280;47216;42.656;23.232;2023-04-28T04:24:54;94262.97;;;4.39;60.98
61345;BME280;47216;42.656;23.232;2023-04-28T04:27:21;94264.97;;;4.43;60.01
61345;BME280;47216;42.656;23.232;2023-04-28T04:29:48;94267.19;;;4.60;58.87
61345;BME280;47216;42.656;23.232;2023-04-28T04:32:15;94266.16;;;4.68;57.95
61345;BME280;47216;42.656;23.232;2023-04-28T04:34:43;94254.63;;;4.83;58.28
61345;BME280;47216;42.656;23.232;2023-04-28T04:37:10;94255.97;;;5.06;57.09
61345;BME280;47216;42.656;23.232;2023-04-28T04:39:37;94260.91;;;5.21;57.36
61345;BME280;47216;42.656;23.232;2023-04-28T04:42:04;94257.88;;;5.31;56.73
61345;BME280;47216;42.656;23.232;2023-04-28T04:44:31;94258.00;;;5.49;57.00
61345;BME280;47216;42.656;23.232;2023-04-28T04:46:58;94261.47;;;5.75;56.78
61345;BME280;47216;42.656;23.232;2023-04-28T04:49:24;94260.66;;;5.81;55.41
61345;BME280;47216;42.656;23.232;2023-04-28T04:51:52;94274.53;;;5.86;54.26
61345;BME280;47216;42.656;23.232;2023-04-28T04:54:19;94272.13;;;5.98;53.59
61345;BME280;47216;42.656;23.232;2023-04-28T04:56:46;94276.41;;;6.18;53.50
61345;BME280;47216;42.656;23.232;2023-04-28T04:59:13;94280.44;;;6.39;53.14
61345;BME280;47216;42.656;23.232;2023-04-28T05:01:40;94285.34;;;6.47;52.45
61345;BME280;47216;42.656;23.232;2023-04-28T05:04:07;94281.34;;;6.51;53.01
61345;BME280;47216;42.656;23.232;2023-04-28T05:06:34;94280.81;;;6.67;52.72
61345;BME280;47216;42.656;23.232;2023-04-28T05:09:02;94282.31;;;6.82;51.92
61345;BME280;47216;42.656;23.232;2023-04-28T05:11:29;94280.28;;;6.84;51.62
61345;BME280;47216;42.656;23.232;2023-04-28T05:13:56;94282.97;;;6.96;51.37
61345;BME280;47216;42.656;23.232;2023-04-28T05:16:22;94287.44;;;7.07;51.95
61345;BME280;47216;42.656;23.232;2023-04-28T05:18:49;94285.50;;;7.02;51.07
61345;BME280;47216;42.656;23.232;2023-04-28T05:21:16;94286.13;;;6.98;49.75
61345;BME280;47216;42.656;23.232;2023-04-28T05:23:43;94294.53;;;6.93;50.83
61345;BME280;47216;42.656;23.232;2023-04-28T05:26:12;94283.19;;;6.94;50.75
61345;BME280;47216;42.656;23.232;2023-04-28T05:28:39;94282.44;;;7.12;51.06
61345;BME280;47216;42.656;23.232;2023-04-28T05:31:06;94285.09;;;7.24;50.17
61345;BME280;47216;42.656;23.232;2023-04-28T05:33:33;94280.50;;;7.26;50.22
61345;BME280;47216;42.656;23.232;2023-04-28T05:36:00;94286.81;;;7.48;49.92
61345;BME280;47216;42.656;23.232;2023-04-28T05:38:27;94281.91;;;7.58;49.79
61345;BME280;47216;42.656;23.232;2023-04-28T05:40:53;94281.19;;;7.70;49.23
61345;BME280;47216;42.656;23.232;2023-04-28T05:43:22;94277.88;;;7.63;48.38
61345;BME280;47216;42.656;23.232;2023-04-28T05:45:49;94280.91;;;7.60;48.02
61345;BME280;47216;42.656;23.232;2023-04-28T05:48:16;94288.53;;;7.73;47.18
61345;BME280;47216;42.656;23.232;2023-04-28T05:50:43;94280.69;;;7.61;47.77
61345;BME280;47216;42.656;23.232;2023-04-28T05:53:10;94288.53;;;7.73;48.01
61345;BME280;47216;42.656;23.232;2023-04-28T05:55:37;94284.34;;;7.90;47.48
61345;BME280;47216;42.656;23.232;2023-04-28T05:58:04;94275.66;;;7.96;48.57
61345;BME280;47216;42.656;23.232;2023-04-28T06:00:32;94288.44;;;7.98;46.52
61345;BME280;47216;42.656;23.232;2023-04-28T06:03:00;94282.56;;;8.03;47.49
61345;BME280;47216;42.656;23.232;2023-04-28T06:05:26;94285.38;;;8.01;46.64
61345;BME280;47216;42.656;23.232;2023-04-28T06:07:53;94283.88;;;7.93;46.79
61345;BME280;47216;42.656;23.232;2023-04-28T06:10:21;94290.03;;;8.11;46.94
61345;BME280;47216;42.656;23.232;2023-04-28T06:12:47;94285.03;;;8.28;47.68
61345;BME280;47216;42.656;23.232;2023-04-28T06:15:14;94288.09;;;8.36;46.42
61345;BME280;47216;42.656;23.232;2023-04-28T06:17:43;94290.47;;;8.38;46.03
61345;BME280;47216;42.656;23.232;2023-04-28T06:20:11;94281.03;;;8.44;45.60
61345;BME280;47216;42.656;23.232;2023-04-28T06:22:38;94289.06;;;8.54;45.38
61345;BME280;47216;42.656;23.232;2023-04-28T06:25:05;94277.19;;;8.46;46.08
61345;BME280;47216;42.656;23.232;2023-04-28T06:27:33;94284.38;;;8.32;45.52
61345;BME280;47216;42.656;23.232;2023-04-28T06:30:00;94291.66;;;8.42;46.01
61345;BME280;47216;42.656;23.232;2023-04-28T06:32:26;94293.03;;;8.56;46.24
61345;BME280;47216;42.656;23.232;2023-04-28T06:34:55;94295.91;;;8.78;46.27
61345;BME280;47216;42.656;23.232;2023-04-28T06:37:21;94285.13;;;8.75;44.92
61345;BME280;47216;42.656;23.232;2023-04-28T06:39:48;94281.97;;;8.73;45.02
61345;BME280;47216;42.656;23.232;2023-04-28T06:42:15;94277.34;;;8.75;43.94
61345;BME280;47216;42.656;23.232;2023-04-28T06:44:42;94273.94;;;8.74;44.91
61345;BME280;47216;42.656;23.232;2023-04-28T06:47:10;94271.34;;;8.74;44.61
61345;BME280;47216;42.656;23.232;2023-04-28T06:49:37;94285.81;;;9.05;45.27
61345;BME280;47216;42.656;23.232;2023-04-28T06:52:05;94285.97;;;9.11;45.21
61345;BME280;47216;42.656;23.232;2023-04-28T06:54:33;94281.28;;;9.01;43.99
61345;BME280;47216;42.656;23.232;2023-04-28T06:56:59;94276.34;;;9.11;44.23
61345;BME280;47216;42.656;23.232;2023-04-28T06:59:26;94284.59;;;9.08;44.02
61345;BME280;47216;42.656;23.232;2023-04-28T07:01:53;94287.19;;;8.84;44.62
61345;BME280;47216;42.656;23.232;2023-04-28T07:04:21;94279.84;;;8.81;44.79
61345;BME280;47216;42.656;23.232;2023-04-28T07:06:48;94275.09;;;9.02;44.82
61345;BME280;47216;42.656;23.232;2023-04-28T07:09:16;94270.91;;;9.13;44.41
61345;BME280;47216;42.656;23.232;2023-04-28T07:11:43;94271.47;;;9.27;44.42
61345;BME280;47216;42.656;23.232;2023-04-28T07:14:10;94267.03;;;9.39;44.33
61345;BME280;47216;42.656;23.232;2023-04-28T07:16:37;94268.16;;;9.43;44.17
61345;BME280;47216;42.656;23.232;2023-04-28T07:19:03;94257.38;;;9.51;43.88
61345;BME280;47216;42.656;23.232;2023-04-28T07:21:30;94257.69;;;9.66;44.03
61345;BME280;47216;42.656;23.232;2023-04-28T07:23:58;94272.63;;;9.71;43.52
61345;BME280;47216;42.656;23.232;2023-04-28T07:26:27;94264.03;;;9.71;42.45
61345;BME280;47216;42.656;23.232;2023-04-28T07:28:54;94262.56;;;9.63;44.11
61345;BME280;47216;42.656;23.232;2023-04-28T07:31:20;94254.81;;;9.80;43.59
61345;BME280;47216;42.656;23.232;2023-04-28T07:33:47;94261.00;;;9.91;44.43
61345;BME280;47216;42.656;23.232;2023-04-28T07:36:14;94252.94;;;9.92;43.55
61345;BME280;47216;42.656;23.232;2023-04-28T07:38:41;94254.53;;;9.93;43.56
61345;BME280;47216;42.656;23.232;2023-04-28T07:41:08;94259.09;;;10.15;42.88
61345;BME280;47216;42.656;23.232;2023-04-28T07:43:37;94257.69;;;10.24;42.07
61345;BME280;47216;42.656;23.232;2023-04-28T07:46:04;94261.25;;;9.89;42.45
61345;BME280;47216;42.656;23.232;2023-04-28T07:48:31;94253.59;;;9.99;42.84
61345;BME280;47216;42.656;23.232;2023-04-28T07:50:59;94254.25;;;10.06;41.78
61345;BME280;47216;42.656;23.232;2023-04-28T07:53:26;94252.69;;;10.05;42.80
61345;BME280;47216;42.656;23.232;2023-04-28T07:55:53;94256.94;;;10.12;41.80
61345;BME280;47216;42.656;23.232;2023-04-28T07:58:20;94250.16;;;10.10;40.86
61345;BME280;47216;42.656;23.232;2023-04-28T08:00:48;94239.91;;;10.21;42.83
61345;BME280;47216;42.656;23.232;2023-04-28T08:03:15;94239.88;;;10.49;43.23
61345;BME280;47216;42.656;23.232;2023-04-28T08:05:42;94237.19;;;10.78;43.26
61345;BME280;47216;42.656;23.232;2023-04-28T08:08:09;94239.69;;;10.90;40.46
61345;BME280;47216;42.656;23.232;2023-04-28T08:10:36;94245.63;;;11.02;41.68
61345;BME280;47216;42.656;23.232;2023-04-28T08:13:05;94238.78;;;11.18;40.59
61345;BME280;47216;42.656;23.232;2023-04-28T08:15:32;94252.25;;;11.10;40.24
61345;BME280;47216;42.656;23.232;2023-04-28T08:18:01;94246.59;;;11.18;41.18
61345;BME280;47216;42.656;23.232;2023-04-28T08:20:28;94249.44;;;11.33;41.37
61345;BME280;47216;42.656;23.232;2023-04-28T08:22:56;94249.75;;;11.59;40.30
61345;BME280;47216;42.656;23.232;2023-04-28T08:25:24;94249.50;;;11.39;40.04
61345;BME280;47216;42.656;23.232;2023-04-28T08:27:51;94252.47;;;11.25;40.09
61345;BME280;47216;42.656;23.232;2023-04-28T08:30:18;94253.25;;;11.26;40.21
61345;BME280;47216;42.656;23.232;2023-04-28T08:32:45;94245.25;;;11.32;39.99
61345;BME280;47216;42.656;23.232;2023-04-28T08:35:14;94255.16;;;11.52;40.70
61345;BME280;47216;42.656;23.232;2023-04-28T08:37:41;94243.91;;;11.52;40.45
61345;BME280;47216;42.656;23.232;2023-04-28T08:40:09;94244.75;;;11.80;40.04
61345;BME280;47216;42.656;23.232;2023-04-28T08:42:36;94241.59;;;11.77;40.24
61345;BME280;47216;42.656;23.232;2023-04-28T08:45:04;94238.09;;;11.45;40.04
61345;BME280;47216;42.656;23.232;2023-04-28T08:47:34;94233.47;;;11.52;39.56
61345;BME280;47216;42.656;23.232;2023-04-28T08:50:03;94242.69;;;11.38;39.77
61345;BME280;47216;42.656;23.232;2023-04-28T08:52:33;94240.16;;;11.43;40.29
61345;BME280;47216;42.656;23.232;2023-04-28T08:55:03;94236.13;;;11.57;40.46
61345;BME280;47216;42.656;23.232;2023-04-28T08:57:35;94239.03;;;11.83;41.69
61345;BME280;47216;42.656;23.232;2023-04-28T09:00:04;94236.03;;;11.91;39.45
61345;BME280;47216;42.656;23.232;2023-04-28T09:02:32;94228.03;;;11.81;39.38
61345;BME280;47216;42.656;23.232;2023-04-28T09:04:59;94221.84;;;11.87;39.02
61345;BME280;47216;42.656;23.232;2023-04-28T09:07:26;94233.22;;;11.97;40.77
61345;BME280;47216;42.656;23.232;2023-04-28T09:12:49;94215.53;;;12.37;39.21
61345;BME280;47216;42.656;23.232;2023-04-28T09:15:27;94183.63;;;12.35;40.36
61345;BME280;47216;42.656;23.232;2023-04-28T09:17:55;94208.31;;;12.49;39.02
61345;BME280;47216;42.656;23.232;2023-04-28T09:20:23;94187.94;;;12.51;39.72
61345;BME280;47216;42.656;23.232;2023-04-28T09:22:51;94218.75;;;12.81;38.34
61345;BME280;47216;42.656;23.232;2023-04-28T09:25:19;94222.06;;;12.67;38.02
61345;BME280;47216;42.656;23.232;2023-04-28T09:27:48;94196.72;;;12.40;37.49
61345;BME280;47216;42.656;23.232;2023-04-28T09:30:15;94198.41;;;12.51;37.69
61345;BME280;47216;42.656;23.232;2023-04-28T09:32:42;94214.75;;;12.69;37.92
61345;BME280;47216;42.656;23.232;2023-04-28T09:35:09;94181.81;;;12.40;38.20
61345;BME280;47216;42.656;23.232;2023-04-28T09:37:36;94202.00;;;12.45;38.14
61345;BME280;47216;42.656;23.232;2023-04-28T09:40:05;94191.63;;;12.55;38.92
61345;BME280;47216;42.656;23.232;2023-04-28T09:42:34;94199.53;;;12.66;37.82
61345;BME280;47216;42.656;23.232;2023-04-28T09:45:07;94169.06;;;12.87;37.54
61345;BME280;47216;42.656;23.232;2023-04-28T09:47:37;94181.50;;;13.12;38.50
61345;BME280;47216;42.656;23.232;2023-04-28T09:50:05;94182.16;;;13.39;37.73
61345;BME280;47216;42.656;23.232;2023-04-28T09:52:34;94181.19;;;13.56;36.15
61345;BME280;47216;42.656;23.232;2023-04-28T09:55:02;94175.47;;;13.69;37.96
61345;BME280;47216;42.656;23.232;2023-04-28T09:57:31;94187.00;;;13.78;37.60
61345;BME280;47216;42.656;23.232;2023-04-28T09:59:59;94180.72;;;13.74;35.75
61345;BME280;47216;42.656;23.232;2023-04-28T10:02:28;94173.63;;;13.75;36.49
61345;BME280;47216;42.656;23.232;2023-04-28T10:04:55;94172.31;;;13.67;35.00
61345;BME280;47216;42.656;23.232;2023-04-28T10:07:22;94156.28;;;13.53;35.32
61345;BME280;47216;42.656;23.232;2023-04-28T10:09:49;94137.91;;;13.38;35.86
61345;BME280;47216;42.656;23.232;2023-04-28T10:12:17;94157.91;;;13.75;36.00
61345;BME280;47216;42.656;23.232;2023-04-28T10:14:44;94129.31;;;13.58;35.79
61345;BME280;47216;42.656;23.232;2023-04-28T10:17:12;94153.50;;;13.96;37.51
61345;BME280;47216;42.656;23.232;2023-04-28T10:19:43;94149.06;;;14.22;37.48
61345;BME280;47216;42.656;23.232;2023-04-28T10:22:22;94148.81;;;14.28;35.81
61345;BME280;47216;42.656;23.232;2023-04-28T10:25:07;94151.41;;;14.44;37.08
61345;BME280;47216;42.656;23.232;2023-04-28T10:27:39;94143.81;;;14.63;37.51
61345;BME280;47216;42.656;23.232;2023-04-28T10:30:11;94140.66;;;14.66;35.24
61345;BME280;47216;42.656;23.232;2023-04-28T10:32:38;94110.50;;;14.43;34.07
61345;BME280;47216;42.656;23.232;2023-04-28T10:35:41;94140.94;;;14.34;34.69
61345;BME280;47216;42.656;23.232;2023-04-28T10:38:10;94138.56;;;14.27;34.80
61345;BME280;47216;42.656;23.232;2023-04-28T10:40:38;94132.00;;;14.50;36.93
61345;BME280;47216;42.656;23.232;2023-04-28T10:43:06;94128.84;;;14.68;35.74
61345;BME280;47216;42.656;23.232;2023-04-28T10:46:06;94120.44;;;14.66;34.65
61345;BME280;47216;42.656;23.232;2023-04-28T10:48:56;94110.75;;;14.72;34.27
61345;BME280;47216;42.656;23.232;2023-04-28T10:51:34;94113.59;;;14.81;33.65
61345;BME280;47216;42.656;23.232;2023-04-28T10:54:09;94113.03;;;14.94;36.65
61345;BME280;47216;42.656;23.232;2023-04-28T10:56:41;94091.97;;;15.09;34.96
61345;BME280;47216;42.656;23.232;2023-04-28T10:59:28;94101.94;;;15.12;32.81
61345;BME280;47216;42.656;23.232;2023-04-28T11:01:55;94105.63;;;15.11;32.88
61345;BME280;47216;42.656;23.232;2023-04-28T11:11:14;94104.19;;;14.34;32.48
61345;BME280;47216;42.656;23.232;2023-04-28T11:13:41;94076.94;;;13.88;32.45
61345;BME280;47216;42.656;23.232;2023-04-28T11:16:13;94101.84;;;14.06;32.76
61345;BME280;47216;42.656;23.232;2023-04-28T11:19:01;94109.97;;;14.41;33.67
61345;BME280;47216;42.656;23.232;2023-04-28T11:21:32;94099.75;;;14.29;33.20
61345;BME280;47216;42.656;23.232;2023-04-28T11:23:59;94057.53;;;14.15;33.12
61345;BME280;47216;42.656;23.232;2023-04-28T11:26:27;94087.91;;;14.47;35.30
61345;BME280;47216;42.656;23.232;2023-04-28T11:28:55;94083.16;;;14.80;34.26
61345;BME280;47216;42.656;23.232;2023-04-28T11:31:23;94079.69;;;15.00;34.42
61345;BME280;47216;42.656;23.232;2023-04-28T11:33:59;94087.50;;;15.10;33.49
61345;BME280;47216;42.656;23.232;2023-04-28T11:36:28;94088.16;;;15.41;33.61
61345;BME280;47216;42.656;23.232;2023-04-28T11:38:56;94086.19;;;15.57;31.64
61345;BME280;47216;42.656;23.232;2023-04-28T11:41:23;94085.19;;;15.53;32.97
61345;BME280;47216;42.656;23.232;2023-04-28T11:43:52;94078.13;;;15.48;32.70
61345;BME280;47216;42.656;23.232;2023-04-28T11:46:21;94079.13;;;15.52;31.02
61345;BME280;47216;42.656;23.232;2023-04-28T11:48:59;94069.72;;;15.46;31.70
61345;BME280;47216;42.656;23.232;2023-04-28T11:51:29;94070.63;;;15.71;32.10
61345;BME280;47216;42.656;23.232;2023-04-28T11:53:56;94077.34;;;15.92;32.82
61345;BME280;47216;42.656;23.232;2023-04-28T11:56:23;94066.78;;;15.98;31.67
61345;BME280;47216;42.656;23.232;2023-04-28T11:59:02;94058.56;;;16.04;33.13
61345;BME280;47216;42.656;23.232;2023-04-28T12:01:30;94070.03;;;16.18;31.77
61345;BME280;47216;42.656;23.232;2023-04-28T12:03:57;94058.03;;;16.36;32.11
61345;BME280;47216;42.656;23.232;2023-04-28T12:06:25;94059.00;;;16.46;31.49
61345;BME280;47216;42.656;23.232;2023-04-28T12:08:52;94036.13;;;16.41;32.01
61345;BME280;47216;42.656;23.232;2023-04-28T12:11:19;94060.28;;;16.72;31.58
61345;BME280;47216;42.656;23.232;2023-04-28T12:14:04;94046.91;;;16.69;31.13
61345;BME280;47216;42.656;23.232;2023-04-28T12:16:39;94051.25;;;16.78;32.01
61345;BME280;47216;42.656;23.232;2023-04-28T12:19:08;94017.59;;;16.27;29.88
61345;BME280;47216;42.656;23.232;2023-04-28T12:21:36;94057.06;;;15.93;29.32
61345;BME280;47216;42.656;23.232;2023-04-28T12:24:16;94024.28;;;15.41;29.37
61345;BME280;47216;42.656;23.232;2023-04-28T12:26:44;94061.41;;;15.68;31.35
61345;BME280;47216;42.656;23.232;2023-04-28T12:29:39;94051.19;;;15.72;30.67
61345;BME280;47216;42.656;23.232;2023-04-28T12:32:07;94043.81;;;15.74;29.56
61345;BME280;47216;42.656;23.232;2023-04-28T12:34:35;94048.50;;;15.77;29.91
61345;BME280;47216;42.656;23.232;2023-04-28T12:37:03;94032.19;;;15.80;30.85
61345;BME280;47216;42.656;23.232;2023-04-28T12:39:30;94052.31;;;15.55;30.96
61345;BME280;47216;42.656;23.232;2023-04-28T12:41:57;94028.63;;;15.61;31.87
61345;BME280;47216;42.656;23.232;2023-04-28T12:44:24;94002.28;;;15.66;31.35
61345;BME280;47216;42.656;23.232;2023-04-28T12:46:53;94021.97;;;16.08;30.88
61345;BME280;47216;42.656;23.232;2023-04-28T12:49:21;94033.00;;;16.39;31.21
61345;BME280;47216;42.656;23.232;2023-04-28T12:51:48;94030.56;;;16.43;30.22
61345;BME280;47216;42.656;23.232;2023-04-28T12:54:15;94026.38;;;16.42;31.40
61345;BME280;47216;42.656;23.232;2023-04-28T12:56:42;94007.00;;;16.03;29.60
61345;BME280;47216;42.656;23.232;2023-04-28T12:59:09;94023.78;;;15.78;30.36
61345;BME280;47216;42.656;23.232;2023-04-28T13:01:37;94004.50;;;15.53;31.54
61345;BME280;47216;42.656;23.232;2023-04-28T13:04:06;94018.25;;;15.80;31.32
61345;BME280;47216;42.656;23.232;2023-04-28T13:06:33;93983.56;;;16.07;31.51
61345;BME280;47216;42.656;23.232;2023-04-28T13:09:01;93997.03;;;16.53;32.50
61345;BME280;47216;42.656;23.232;2023-04-28T13:11:28;93993.31;;;16.78;31.96